createdAt,value
2022-10-11T00:01:12.589Z,102407.61
2022-10-11T00:03:42.265Z,102405.95
2022-10-11T00:06:11.881Z,102407.24
2022-10-11T00:08:41.506Z,102408.48
2022-10-11T00:11:11.737Z,102402.13
2022-10-11T00:13:41.473Z,102399.21
2022-10-11T00:16:13.008Z,102395.80
2022-10-11T00:18:43.250Z,102396.70
2022-10-11T00:21:14.418Z,102400.15
2022-10-11T00:23:44.407Z,102400.38
2022-10-11T00:26:14.051Z,102396.16
2022-10-11T00:28:44.020Z,102394.10
2022-10-11T00:31:14.968Z,102389.59
2022-10-11T00:33:44.517Z,102388.84
2022-10-11T00:36:17.002Z,102384.29
2022-10-11T00:38:46.885Z,102384.58
2022-10-11T00:41:16.695Z,102388.27
2022-10-11T00:43:46.436Z,102386.84
2022-10-11T00:46:32.721Z,102381.64
2022-10-11T00:49:06.058Z,102379.98
2022-10-11T00:51:49.150Z,102370.13
2022-10-11T00:54:20.288Z,102371.56
2022-10-11T00:56:52.161Z,102368.50
2022-10-11T00:59:23.710Z,102369.02
2022-10-11T01:01:55.351Z,102371.27
2022-10-11T01:04:25.065Z,102368.89
2022-10-11T01:06:54.860Z,102367.45
2022-10-11T01:09:24.762Z,102369.11
2022-10-11T01:11:55.314Z,102369.79
2022-10-11T01:14:50.741Z,102371.05
2022-10-11T01:17:23.727Z,102373.52
2022-10-11T01:20:11.806Z,102377.02
2022-10-11T01:22:55.710Z,102375.66
2022-10-11T01:25:28.880Z,102375.55
2022-10-11T01:28:06.388Z,102375.95
2022-10-11T01:30:37.508Z,102376.95
2022-10-11T01:33:14.607Z,102377.06
2022-10-11T01:35:47.303Z,102379.33
2022-10-11T01:38:18.667Z,102383.91
2022-10-11T01:40:50.203Z,102380.02
2022-10-11T01:43:22.041Z,102378.71
2022-10-11T01:45:53.742Z,102377.17
2022-10-11T01:48:23.442Z,102376.34
2022-10-11T01:50:53.872Z,102380.45
2022-10-11T01:53:32.510Z,102376.85
2022-10-11T01:56:07.899Z,102374.41
2022-10-11T01:58:44.945Z,102371.69
2022-10-11T02:01:18.799Z,102373.52
2022-10-11T02:03:50.677Z,102374.44
2022-10-11T02:06:24.965Z,102376.02
2022-10-11T02:08:57.135Z,102377.66
2022-10-11T02:11:29.092Z,102377.67
2022-10-11T02:14:01.318Z,102378.46
2022-10-11T02:16:35.165Z,102376.64
2022-10-11T02:19:06.448Z,102374.48
2022-10-11T02:21:37.668Z,102375.39
2022-10-11T02:24:09.803Z,102373.81
2022-10-11T02:26:40.901Z,102370.55
2022-10-11T02:29:11.558Z,102371.41
2022-10-11T02:31:42.396Z,102363.73
2022-10-11T02:34:13.405Z,102360.42
2022-10-11T02:36:48.734Z,102358.34
2022-10-11T02:39:21.185Z,102357.59
2022-10-11T02:41:52.840Z,102352.33
2022-10-11T02:44:26.154Z,102347.65
2022-10-11T02:46:56.245Z,102342.23
2022-10-11T02:49:25.949Z,102343.80
2022-10-11T02:51:57.808Z,102343.09
2022-10-11T02:54:28.049Z,102344.23
2022-10-11T02:56:57.735Z,102340.90
2022-10-11T02:59:27.372Z,102337.20
2022-10-11T03:01:56.989Z,102334.55
2022-10-11T03:04:26.668Z,102333.79
2022-10-11T03:06:56.277Z,102332.52
2022-10-11T03:09:25.877Z,102328.53
2022-10-11T03:11:55.533Z,102328.41
2022-10-11T03:14:25.226Z,102331.02
2022-10-11T03:16:54.839Z,102327.33
2022-10-11T03:19:24.545Z,102322.20
2022-10-11T03:21:54.177Z,102318.75
2022-10-11T03:24:23.885Z,102315.06
2022-10-11T03:26:53.492Z,102312.94
2022-10-11T03:29:23.173Z,102311.41
2022-10-11T03:31:52.725Z,102309.61
2022-10-11T03:34:22.395Z,102311.09
2022-10-11T03:36:52.227Z,102311.32
2022-10-11T03:39:22.188Z,102310.11
2022-10-11T03:41:51.759Z,102310.04
2022-10-11T03:44:21.336Z,102309.41
2022-10-11T03:46:50.922Z,102310.33
2022-10-11T03:49:20.693Z,102308.54
2022-10-11T03:51:50.333Z,102306.70
2022-10-11T03:54:19.962Z,102308.94
2022-10-11T03:56:49.577Z,102314.91
2022-10-11T03:59:19.150Z,102310.50
2022-10-11T04:01:48.749Z,102308.13
2022-10-11T04:04:18.332Z,102309.38
2022-10-11T04:06:47.911Z,102310.46
2022-10-11T04:09:17.517Z,102311.41
2022-10-11T04:11:47.151Z,102309.59
2022-10-11T04:14:17.364Z,102306.78
2022-10-11T04:16:46.956Z,102305.38
2022-10-11T04:19:16.776Z,102307.83
2022-10-11T04:21:46.423Z,102303.33
2022-10-11T04:24:16.029Z,102300.04
2022-10-11T04:26:45.642Z,102297.98
2022-10-11T04:29:15.485Z,102296.48
2022-10-11T04:31:45.365Z,102296.30
2022-10-11T04:34:15.235Z,102295.35
2022-10-11T04:36:49.639Z,102299.60
2022-10-11T04:39:19.640Z,102299.88
2022-10-11T04:41:49.199Z,102300.98
2022-10-11T04:44:18.799Z,102297.65
2022-10-11T04:46:48.396Z,102298.86
2022-10-11T04:49:18.020Z,102300.55
2022-10-11T04:51:47.673Z,102300.91
2022-10-11T04:54:17.190Z,102301.39
2022-10-11T04:56:46.793Z,102302.42
2022-10-11T04:59:16.376Z,102304.20
2022-10-11T05:01:46.134Z,102299.30
2022-10-11T05:04:15.735Z,102296.05
2022-10-11T05:06:45.420Z,102295.75
2022-10-11T05:09:17.989Z,102296.77
2022-10-11T05:11:47.594Z,102294.77
2022-10-11T05:14:17.170Z,102300.80
2022-10-11T05:16:46.782Z,102302.89
2022-10-11T05:19:16.392Z,102306.58
2022-10-11T05:21:46.060Z,102308.08
2022-10-11T05:24:17.062Z,102303.13
2022-10-11T05:26:46.678Z,102303.33
2022-10-11T05:29:16.296Z,102302.21
2022-10-11T05:31:45.952Z,102303.21
2022-10-11T05:34:15.754Z,102307.00
2022-10-11T05:36:45.576Z,102302.27
2022-10-11T05:39:15.411Z,102300.67
2022-10-11T05:41:45.045Z,102297.11
2022-10-11T05:44:14.739Z,102296.42
2022-10-11T05:46:47.410Z,102296.95
2022-10-11T05:49:17.125Z,102297.64
2022-10-11T05:51:47.248Z,102291.80
2022-10-11T05:54:17.270Z,102291.42
2022-10-11T05:56:47.196Z,102292.48
2022-10-11T05:59:17.040Z,102291.54
2022-10-11T06:01:46.765Z,102293.65
2022-10-11T06:04:16.880Z,102297.57
2022-10-11T06:06:46.615Z,102299.71
2022-10-11T06:09:16.622Z,102297.73
2022-10-11T06:11:46.290Z,102299.04
2022-10-11T06:14:16.041Z,102296.40
2022-10-11T06:16:45.679Z,102297.89
2022-10-11T06:19:15.309Z,102300.27
2022-10-11T06:21:45.956Z,102296.61
2022-10-11T06:24:15.967Z,102296.85
2022-10-11T06:26:45.954Z,102294.60
2022-10-11T06:29:15.601Z,102291.27
2022-10-11T06:31:45.654Z,102294.20
2022-10-11T06:34:15.578Z,102292.98
2022-10-11T06:36:45.243Z,102289.77
2022-10-11T06:39:16.115Z,102291.06
2022-10-11T06:41:48.803Z,102293.06
2022-10-11T06:44:18.338Z,102291.65
2022-10-11T06:46:47.883Z,102293.44
2022-10-11T06:49:23.149Z,102294.66
2022-10-11T06:51:53.417Z,102290.77
2022-10-11T06:54:25.629Z,102288.79
2022-10-11T06:56:55.261Z,102285.58
2022-10-11T06:59:24.862Z,102285.91
2022-10-11T07:01:54.444Z,102284.23
2022-10-11T07:04:24.030Z,102283.98
2022-10-11T07:06:53.623Z,102285.39
2022-10-11T07:09:23.281Z,102282.02
2022-10-11T07:11:52.877Z,102279.89
2022-10-11T07:14:22.491Z,102280.02
2022-10-11T07:16:52.211Z,102275.74
2022-10-11T07:19:22.322Z,102279.39
2022-10-11T07:21:51.939Z,102282.02
2022-10-11T07:24:21.863Z,102283.92
2022-10-11T07:26:51.536Z,102284.51
2022-10-11T07:29:21.389Z,102282.77
2022-10-11T07:31:51.084Z,102281.96
2022-10-11T07:34:23.054Z,102283.64
2022-10-11T07:36:52.750Z,102283.88
2022-10-11T07:39:22.786Z,102286.60
2022-10-11T07:41:52.408Z,102287.69
2022-10-11T07:44:22.482Z,102287.35
2022-10-11T07:46:53.797Z,102288.23
2022-10-11T07:49:23.877Z,102286.91
2022-10-11T07:51:53.484Z,102288.46
2022-10-11T07:54:23.334Z,102287.30
2022-10-11T07:56:53.167Z,102290.54
2022-10-11T07:59:22.838Z,102291.95
2022-10-11T08:01:52.594Z,102287.76
2022-10-11T08:04:22.656Z,102286.05
2022-10-11T08:06:53.428Z,102288.38
2022-10-11T08:09:23.305Z,102292.99
2022-10-11T08:11:53.035Z,102295.06
2022-10-11T08:14:22.699Z,102294.36
2022-10-11T08:16:52.283Z,102293.79
2022-10-11T08:19:22.531Z,102296.08
2022-10-11T08:21:52.657Z,102297.77
2022-10-11T08:24:22.389Z,102295.98
2022-10-11T08:26:52.686Z,102291.52
2022-10-11T08:29:24.935Z,102294.63
2022-10-11T08:31:54.607Z,102301.20
2022-10-11T08:34:24.241Z,102301.17
2022-10-11T08:36:54.028Z,102299.30
2022-10-11T08:39:23.691Z,102298.39
2022-10-11T08:41:55.515Z,102297.59
2022-10-11T08:45:05.493Z,102297.25
2022-10-11T08:47:30.615Z,102299.68
2022-10-11T08:50:01.070Z,102296.98
2022-10-11T08:52:35.084Z,102294.58
2022-10-11T08:55:06.394Z,102286.74
2022-10-11T08:57:38.727Z,102288.02
2022-10-11T09:00:12.715Z,102286.08
2022-10-11T09:03:08.630Z,102282.93
2022-10-11T09:05:47.628Z,102285.83
2022-10-11T09:08:22.804Z,102289.95
2022-10-11T09:11:07.671Z,102290.64
2022-10-11T09:13:46.092Z,102287.89
2022-10-11T09:16:22.273Z,102284.77
2022-10-11T09:19:00.577Z,102282.47
2022-10-11T09:21:35.215Z,102283.74
2022-10-11T09:24:14.871Z,102290.58
2022-10-11T09:26:49.172Z,102287.91
2022-10-11T09:29:23.090Z,102289.18
2022-10-11T09:31:54.870Z,102288.95
2022-10-11T09:34:26.495Z,102289.06
2022-10-11T09:37:00.242Z,102289.35
2022-10-11T09:39:31.875Z,102286.69
2022-10-11T09:42:03.033Z,102288.79
2022-10-11T09:44:35.777Z,102286.05
2022-10-11T09:47:06.264Z,102287.01
2022-10-11T09:49:37.808Z,102283.09
2022-10-11T09:52:08.714Z,102282.70
2022-10-11T09:54:42.688Z,102280.20
2022-10-11T09:57:21.656Z,102271.81
2022-10-11T10:00:03.680Z,102267.43
2022-10-11T10:02:45.373Z,102262.77
2022-10-11T10:05:22.250Z,102256.42
2022-10-11T10:08:08.360Z,102261.87
2022-10-11T10:10:44.093Z,102261.93
2022-10-11T10:13:25.189Z,102260.31
2022-10-11T10:15:56.290Z,102256.43
2022-10-11T10:18:28.737Z,102250.39
2022-10-11T10:21:01.793Z,102250.55
2022-10-11T10:23:33.532Z,102251.05
2022-10-11T10:26:26.186Z,102253.55
2022-10-11T10:29:20.361Z,102253.42
2022-10-11T10:32:14.739Z,102248.73
2022-10-11T10:35:04.189Z,102249.55
2022-10-11T10:37:36.587Z,102249.48
2022-10-11T10:40:08.959Z,102251.29
2022-10-11T10:42:39.198Z,102250.91
2022-10-11T10:45:20.913Z,102249.77
2022-10-11T10:48:05.428Z,102254.23
2022-10-11T10:50:43.500Z,102252.45
2022-10-11T10:53:22.150Z,102250.30
2022-10-11T10:55:54.215Z,102248.13
2022-10-11T10:58:42.711Z,102246.89
2022-10-11T11:01:15.092Z,102241.34
2022-10-11T11:03:48.481Z,102238.75
2022-10-11T11:06:22.137Z,102236.11
2022-10-11T11:08:56.963Z,102234.23
2022-10-11T11:11:44.643Z,102232.20
2022-10-11T11:14:20.154Z,102227.48
2022-10-11T11:16:57.741Z,102224.79
2022-10-11T11:19:40.234Z,102221.64
2022-10-11T11:22:24.123Z,102210.23
2022-10-11T11:25:01.774Z,102210.92
2022-10-11T11:27:41.898Z,102203.13
2022-10-11T11:30:26.227Z,102205.30
2022-10-11T11:33:02.902Z,102204.02
2022-10-11T11:35:37.027Z,102194.83
2022-10-11T11:38:12.852Z,102189.16
2022-10-11T11:40:45.195Z,102183.02
2022-10-11T11:43:22.632Z,102185.42
2022-10-11T11:45:57.972Z,102192.18
2022-10-11T11:48:28.383Z,102190.64
2022-10-11T11:51:02.519Z,102193.54
2022-10-11T11:53:43.107Z,102194.84
2022-10-11T11:56:28.094Z,102192.88
2022-10-11T11:59:05.715Z,102196.66
2022-10-11T12:01:39.041Z,102196.02
2022-10-11T12:04:17.576Z,102204.46
2022-10-11T12:07:15.350Z,102203.18
2022-10-11T12:09:50.873Z,102200.80
2022-10-11T12:12:34.614Z,102204.39
2022-10-11T12:15:19.479Z,102209.98
2022-10-11T12:18:15.947Z,102206.50
2022-10-11T12:20:46.416Z,102202.39
2022-10-11T12:23:33.650Z,102200.05
2022-10-11T12:26:32.230Z,102194.28
2022-10-11T12:29:06.868Z,102196.26
2022-10-11T12:31:40.312Z,102199.48
2022-10-11T12:34:34.609Z,102191.81
2022-10-11T12:37:34.139Z,102193.41
2022-10-11T12:40:03.863Z,102187.13
2022-10-11T12:42:34.794Z,102182.84
2022-10-11T12:45:21.872Z,102181.40
2022-10-11T12:47:55.734Z,102174.42
2022-10-11T12:50:30.290Z,102166.90
2022-10-11T12:53:04.739Z,102164.46
2022-10-11T12:55:46.204Z,102159.23
2022-10-11T12:58:27.230Z,102148.11
2022-10-11T13:01:11.737Z,102151.16
2022-10-11T13:03:42.988Z,102146.33
2022-10-11T13:06:15.758Z,102149.42
2022-10-11T13:08:47.671Z,102143.70
2022-10-11T13:11:20.654Z,102141.73
2022-10-11T13:13:55.659Z,102139.83
2022-10-11T13:16:28.525Z,102138.91
2022-10-11T13:18:59.362Z,102136.23
2022-10-11T13:21:31.267Z,102127.48
2022-10-11T13:24:02.366Z,102115.68
2022-10-11T13:26:32.843Z,102108.09
2022-10-11T13:29:02.594Z,102108.74
2022-10-11T13:31:33.157Z,102111.15
2022-10-11T13:34:02.892Z,102108.97
2022-10-11T13:36:33.050Z,102107.43
2022-10-11T13:39:03.086Z,102102.74
2022-10-11T13:41:35.090Z,102102.27
2022-10-11T13:44:05.829Z,102096.19
2022-10-11T13:46:38.095Z,102094.87
2022-10-11T13:49:26.060Z,102095.73
2022-10-11T13:52:00.634Z,102098.29
2022-10-11T13:54:48.956Z,102092.48
2022-10-11T13:57:18.568Z,102088.57
2022-10-11T13:59:48.373Z,102086.42
2022-10-11T14:02:20.012Z,102084.96
2022-10-11T14:04:50.103Z,102077.84
2022-10-11T14:07:25.432Z,102080.75
2022-10-11T14:09:56.160Z,102076.42
2022-10-11T14:12:33.699Z,102075.65
2022-10-11T14:15:04.320Z,102075.92
2022-10-11T14:17:44.292Z,102072.39
2022-10-11T14:20:21.689Z,102065.40
2022-10-11T14:22:55.662Z,102061.48
2022-10-11T14:25:25.632Z,102056.64
2022-10-11T14:27:55.795Z,102051.21
2022-10-11T14:30:27.795Z,102043.91
2022-10-11T14:32:59.265Z,102041.89
2022-10-11T14:35:31.983Z,102035.97
2022-10-11T14:38:01.786Z,102033.23
2022-10-11T14:40:32.226Z,102027.50
2022-10-11T14:43:01.866Z,102021.52
2022-10-11T14:45:31.696Z,102014.83
2022-10-11T14:48:01.252Z,102007.98
2022-10-11T14:50:33.872Z,102002.31
2022-10-11T14:53:03.835Z,101995.41
2022-10-11T14:55:33.494Z,101988.34
2022-10-11T14:58:03.164Z,101989.30
2022-10-11T15:00:33.474Z,101989.70
2022-10-11T15:03:03.166Z,101988.98
2022-10-11T15:05:34.346Z,101984.15
2022-10-11T15:08:04.200Z,101978.15
2022-10-11T15:10:36.205Z,101975.61
2022-10-11T15:13:07.191Z,101973.16
2022-10-11T15:15:37.888Z,101967.57
2022-10-11T15:18:08.443Z,101960.47
2022-10-11T15:20:40.322Z,101958.67
2022-10-11T15:23:11.018Z,101956.44
2022-10-11T15:25:41.930Z,101954.11
2022-10-11T15:28:17.370Z,101951.52
2022-10-11T15:30:47.068Z,101947.81
2022-10-11T15:33:16.765Z,101944.96
2022-10-11T15:35:46.574Z,101942.20
2022-10-11T15:38:19.381Z,101943.17
2022-10-11T15:40:49.872Z,101945.00
2022-10-11T15:43:24.499Z,101947.06
2022-10-11T15:45:55.155Z,101940.31
2022-10-11T15:48:26.831Z,101939.23
2022-10-11T15:50:57.041Z,101933.27
2022-10-11T15:53:30.272Z,101929.11
2022-10-11T15:56:00.980Z,101923.81
2022-10-11T15:58:31.824Z,101920.58
2022-10-11T16:01:05.665Z,101922.84
2022-10-11T16:03:35.764Z,101923.81
2022-10-11T16:06:06.020Z,101917.69
2022-10-11T16:08:35.804Z,101917.84
2022-10-11T16:11:06.048Z,101910.20
2022-10-11T16:13:36.105Z,101906.95
2022-10-11T16:16:06.917Z,101905.05
2022-10-11T16:18:36.854Z,101904.73
2022-10-11T16:21:10.218Z,101898.23
2022-10-11T16:23:40.486Z,101891.25
2022-10-11T16:26:13.633Z,101889.63
2022-10-11T16:28:43.519Z,101886.85
2022-10-11T16:31:16.997Z,101886.56
2022-10-11T16:33:48.876Z,101882.85
2022-10-11T16:36:40.463Z,101885.51
2022-10-11T16:39:15.244Z,101882.27
2022-10-11T16:41:46.219Z,101879.73
2022-10-11T16:44:17.737Z,101879.16
2022-10-11T16:47:19.134Z,101875.79
2022-10-11T16:49:51.229Z,101878.30
2022-10-11T16:52:20.947Z,101876.07
2022-10-11T16:54:50.781Z,101874.27
2022-10-11T16:57:21.256Z,101877.60
2022-10-11T16:59:51.262Z,101877.30
2022-10-11T17:02:22.550Z,101875.23
2022-10-11T17:04:54.091Z,101877.50
2022-10-11T17:07:24.323Z,101869.13
2022-10-11T17:09:54.119Z,101869.45
2022-10-11T17:12:25.142Z,101862.13
2022-10-11T17:14:54.896Z,101858.69
2022-10-11T17:17:24.671Z,101861.02
2022-10-11T17:19:54.295Z,101859.77
2022-10-11T17:22:24.318Z,101857.55
2022-10-11T17:24:53.947Z,101852.52
2022-10-11T17:27:23.530Z,101848.02
2022-10-11T17:29:53.254Z,101850.02
2022-10-11T17:32:22.870Z,101846.18
2022-10-11T17:34:52.502Z,101844.71
2022-10-11T17:37:22.301Z,101840.45
2022-10-11T17:39:51.988Z,101843.18
2022-10-11T17:42:21.826Z,101836.98
2022-10-11T17:44:51.518Z,101835.59
2022-10-11T17:47:21.118Z,101833.67
2022-10-11T17:49:50.753Z,101830.15
2022-10-11T17:52:20.349Z,101832.20
2022-10-11T17:54:49.988Z,101831.02
2022-10-11T17:57:19.632Z,101831.58
2022-10-11T17:59:49.255Z,101834.27
2022-10-11T18:02:18.856Z,101835.50
2022-10-11T18:04:48.610Z,101837.41
2022-10-11T18:07:18.211Z,101839.26
2022-10-11T18:09:48.181Z,101839.30
2022-10-11T18:12:18.137Z,101835.66
2022-10-11T18:14:47.749Z,101834.27
2022-10-11T18:17:17.405Z,101834.66
2022-10-11T18:19:47.010Z,101830.00
2022-10-11T18:22:16.671Z,101828.84
2022-10-11T18:24:46.299Z,101824.02
2022-10-11T18:27:15.984Z,101820.67
2022-10-11T18:29:45.610Z,101821.82
2022-10-11T18:32:18.191Z,101821.68
2022-10-11T18:34:48.160Z,101821.38
2022-10-11T18:37:18.257Z,101819.23
2022-10-11T18:39:48.163Z,101819.19
2022-10-11T18:42:17.994Z,101819.08
2022-10-11T18:44:47.757Z,101816.02
2022-10-11T18:47:17.723Z,101817.96
2022-10-11T18:49:47.391Z,101814.77
2022-10-11T18:52:17.308Z,101815.71
2022-10-11T18:54:47.210Z,101809.55
2022-10-11T18:57:17.418Z,101806.46
2022-10-11T18:59:47.236Z,101806.70
2022-10-11T19:02:16.946Z,101807.95
2022-10-11T19:04:52.612Z,101806.73
2022-10-11T19:07:24.852Z,101806.17
2022-10-11T19:09:54.538Z,101801.06
2022-10-11T19:12:24.232Z,101796.54
2022-10-11T19:14:54.915Z,101799.55
2022-10-11T19:17:24.859Z,101797.25
2022-10-11T19:19:54.588Z,101793.17
2022-10-11T19:22:24.440Z,101792.95
2022-10-11T19:24:54.975Z,101791.54
2022-10-11T19:27:24.650Z,101786.95
2022-10-11T19:29:54.616Z,101778.80
2022-10-11T19:32:24.529Z,101772.95
2022-10-11T19:34:54.091Z,101775.71
2022-10-11T19:37:24.046Z,101772.81
2022-10-11T19:39:53.888Z,101768.63
2022-10-11T19:42:26.863Z,101764.23
2022-10-11T19:44:56.663Z,101760.17
2022-10-11T19:47:26.496Z,101760.67
2022-10-11T19:49:56.231Z,101756.74
2022-10-11T19:52:25.938Z,101753.69
2022-10-11T19:54:55.790Z,101752.52
2022-10-11T19:57:25.736Z,101753.86
2022-10-11T19:59:55.481Z,101757.41
2022-10-11T20:02:25.132Z,101757.58
2022-10-11T20:04:55.136Z,101756.81
2022-10-11T20:07:25.322Z,101755.48
2022-10-11T20:09:55.301Z,101753.20
2022-10-11T20:12:24.960Z,101750.15
2022-10-11T20:14:54.867Z,101746.33
2022-10-11T20:17:44.553Z,101744.31
2022-10-11T20:20:14.400Z,101741.44
2022-10-11T20:22:44.110Z,101739.96
2022-10-11T20:25:13.951Z,101737.71
2022-10-11T20:27:43.870Z,101732.99
2022-10-11T20:30:15.069Z,101734.03
2022-10-11T20:32:44.776Z,101727.81
2022-10-11T20:35:15.176Z,101723.80
2022-10-11T20:37:45.241Z,101717.61
2022-10-11T20:40:15.567Z,101715.08
2022-10-11T20:42:45.413Z,101709.71
2022-10-11T20:45:15.333Z,101713.10
2022-10-11T20:47:45.081Z,101710.33
2022-10-11T20:50:15.453Z,101705.65
2022-10-11T20:52:47.076Z,101703.02
2022-10-11T20:55:16.624Z,101699.61
2022-10-11T20:57:46.301Z,101699.20
2022-10-11T21:00:16.950Z,101696.33
2022-10-11T21:02:46.634Z,101696.84
2022-10-11T21:05:16.246Z,101698.23
2022-10-11T21:07:45.920Z,101696.59
2022-10-11T21:10:15.610Z,101693.95
2022-10-11T21:12:45.214Z,101690.38
2022-10-11T21:15:14.782Z,101691.61
2022-10-11T21:17:44.402Z,101692.73
2022-10-11T21:20:14.076Z,101686.61
2022-10-11T21:22:43.835Z,101683.56
2022-10-11T21:25:13.505Z,101676.05
2022-10-11T21:27:43.188Z,101675.31
2022-10-11T21:30:13.035Z,101675.81
2022-10-11T21:32:42.611Z,101675.42
2022-10-11T21:35:12.305Z,101668.10
2022-10-11T21:37:41.914Z,101666.46
2022-10-11T21:40:11.859Z,101662.64
2022-10-11T21:42:41.513Z,101661.38
2022-10-11T21:45:11.077Z,101659.29
2022-10-11T21:47:40.968Z,101658.02
2022-10-11T21:50:10.899Z,101652.16
2022-10-11T21:52:40.494Z,101654.05
2022-10-11T21:55:10.870Z,101648.85
2022-10-11T21:57:42.422Z,101644.73
2022-10-11T22:00:13.335Z,101646.27
2022-10-11T22:02:42.907Z,101636.58
2022-10-11T22:05:12.550Z,101630.05
2022-10-11T22:07:42.294Z,101625.71
2022-10-11T22:10:11.855Z,101616.81
2022-10-11T22:12:41.749Z,101617.13
2022-10-11T22:15:11.874Z,101615.21
2022-10-11T22:17:41.581Z,101609.14
2022-10-11T22:20:11.789Z,101607.73
2022-10-11T22:22:41.519Z,101605.23
2022-10-11T22:25:11.533Z,101606.08
2022-10-11T22:27:41.151Z,101610.04
2022-10-11T22:30:11.795Z,101607.79
2022-10-11T22:32:41.440Z,101607.75
2022-10-11T22:35:11.057Z,101606.21
2022-10-11T22:37:40.746Z,101605.03
2022-10-11T22:40:11.240Z,101603.70
2022-10-11T22:42:40.931Z,101602.14
2022-10-11T22:45:11.256Z,101598.19
2022-10-11T22:47:40.800Z,101593.05
2022-10-11T22:50:10.860Z,101594.09
2022-10-11T22:52:40.619Z,101594.86
2022-10-11T22:55:10.775Z,101591.58
2022-10-11T22:57:40.326Z,101588.52
2022-10-11T23:00:11.086Z,101587.72
2022-10-11T23:02:40.642Z,101584.25
2022-10-11T23:05:12.138Z,101577.62
2022-10-11T23:07:41.736Z,101574.45
2022-10-11T23:10:11.673Z,101564.69
2022-10-11T23:12:41.279Z,101559.20
2022-10-11T23:15:11.954Z,101551.56
2022-10-11T23:17:41.495Z,101546.98
2022-10-11T23:20:11.993Z,101543.08
2022-10-11T23:22:41.700Z,101544.25
2022-10-11T23:25:11.748Z,101543.77
2022-10-11T23:27:41.281Z,101540.35
2022-10-11T23:30:12.566Z,101535.66
2022-10-11T23:32:42.129Z,101527.41
2022-10-11T23:35:11.914Z,101521.41
2022-10-11T23:37:41.609Z,101518.89
2022-10-11T23:40:11.834Z,101508.85
2022-10-11T23:42:41.542Z,101501.52
2022-10-11T23:45:12.327Z,101502.02
2022-10-11T23:47:41.972Z,101496.83
2022-10-11T23:50:11.680Z,101496.95
2022-10-11T23:52:41.348Z,101487.60
2022-10-11T23:55:11.262Z,101482.28
2022-10-11T23:57:41.116Z,101482.38
